ADDS TAF Board (Experimental) INFO Settings
IDs: Format: Expanded Condensed

KPHL - Philadelphia Intl, PA, US

Issued at 0539 UTC 29 May 2016
Updated at: 0736 UTC 29 May 2016
Time0654Z 29/08Z 29/09Z 29/10Z 29/11Z 29/12Z 29/13Z 29/14Z 29/15Z 29/16Z 29/17Z 29/18Z 29/19Z 29/20Z
Type OBS PRVL PRVL PRVL PRVL PRVL PRVL PRVL PRVL PRVL PRVL PRVL PRVL PRVL
VIS 10 >6 >6 >6 >6 >6 >6 >6 >6 >6 >6 >6 >6 >6
CIG -- -- -- -- -- -- -- -- -- 200 200 200 200 200
Cover SCT FEW FEW FEW FEW SCT SCT SCT SCT BKN BKN BKN BKN BKN
FltCat VFR VFR VFR VFR VFR VFR VFR VFR VFR VFR VFR VFR VFR VFR
WX -- -- -- -- -- -- -- -- -- -- -- -- -- --
WDir 190 180 180 180 180 190 190 190 190 210 210 210 210 210
WSpd 5 5 5 5 5 6 6 6 6 10 10 10 10 10
WGst -- -- -- -- -- -- -- -- -- -- -- -- -- --
R08/26
XWnd -5 -5 -5 -5 -5 -5 -5 -5 -5 -7 -7 -7 -7 -7
HWnd -2 -1 -1 -1 -1 -3 -3 -3 -3 -7 -7 -7 -7 -7
R09/27
XWnd -5 -5 -5 -5 -5 -5 -5 -5 -5 -7 -7 -7 -7 -7
HWnd -2 -1 -1 -1 -1 -3 -3 -3 -3 -7 -7 -7 -7 -7
R17/35
XWnd -3 -2 -2 -2 -2 -3 -3 -3 -3 -8 -8 -8 -8 -8
HWnd 4 5 5 5 5 5 5 5 5 6 6 6 6 6

NOTE: TEMPO conditions in [brackets]. Keep in mind TEMPO conditions might be better (lower impact) than prevailing conditions.

Raw TAF
KPHL 290539Z 2906/3012 18005KT P6SM FEW250
  FM291200 19006KT P6SM SCT250
  FM291600 21010KT P6SM BKN200
  FM292200 20006KT P6SM -SHRA FEW030 OVC060
  TEMPO 3002/3006 4SM SHRA BKN020
  FM300900 03003KT 4SM RA BR OVC009
  TEMPO 3009/3012 2SM +RA BR


Raw METAR
KPHL 290654Z 19005KT 10SM SCT250 21/16 A3014 RMK AO2 SLP207 T02060156 $
KPHL 290554Z 20006KT 10SM SCT250 21/15 A3016 RMK AO2 SLP211 T02110150 10278 20211 52002 $
KPHL 290454Z 18005KT 10SM SCT250 21/15 A3015 RMK AO2 SLP210 T02110150 403220200 $

METAR Board
Radar Display
Forecast Discussion

TAF Board Legend

Potential Impact
Threat None Slight Moderate High
Visibility (sm) ≥5.1 5.1>X≥3 3>X≥1 <1
Ceiling (100 ft) ≥30.1 30.1>X≥10 10>X≥5 <5
Wind Speed (kt) <10 10≤X<20 20≤X<30 ≥30
Wind Gust (kt) <15 15≤X<25 25≤X<35 ≥35
Weather No Wx Reported VCTS,-TS,-FZRA,SN TS,FZRA +TS,+FZRA,+SN